sensor_id;sensor_type;location;lat;lon;timestamp;P1;durP1;ratioP1;P2;durP2;ratioP2
56999;SDS011;42891;50.006;21.964;2024-03-06T00:00:47;45.53;;;23.05;;
56999;SDS011;42891;50.006;21.964;2024-03-06T00:04:47;43.43;;;22.77;;
56999;SDS011;42891;50.006;21.964;2024-03-06T00:08:48;39.78;;;20.90;;
56999;SDS011;42891;50.006;21.964;2024-03-06T00:12:48;37.33;;;20.37;;
56999;SDS011;42891;50.006;21.964;2024-03-06T00:16:49;37.95;;;21.70;;
56999;SDS011;42891;50.006;21.964;2024-03-06T00:20:55;34.05;;;19.55;;
56999;SDS011;42891;50.006;21.964;2024-03-06T00:24:56;37.95;;;20.70;;
56999;SDS011;42891;50.006;21.964;2024-03-06T00:28:56;33.90;;;19.53;;
56999;SDS011;42891;50.006;21.964;2024-03-06T00:32:56;38.35;;;20.70;;
56999;SDS011;42891;50.006;21.964;2024-03-06T00:36:57;31.67;;;18.02;;
56999;SDS011;42891;50.006;21.964;2024-03-06T00:40:58;33.47;;;19.27;;
56999;SDS011;42891;50.006;21.964;2024-03-06T00:44:58;32.47;;;19.17;;
56999;SDS011;42891;50.006;21.964;2024-03-06T00:48:58;32.93;;;18.37;;
56999;SDS011;42891;50.006;21.964;2024-03-06T00:52:58;33.25;;;19.73;;
56999;SDS011;42891;50.006;21.964;2024-03-06T00:56:59;31.23;;;18.27;;
56999;SDS011;42891;50.006;21.964;2024-03-06T01:00:59;33.63;;;18.70;;
56999;SDS011;42891;50.006;21.964;2024-03-06T01:05:01;32.15;;;19.33;;
56999;SDS011;42891;50.006;21.964;2024-03-06T01:09:03;32.70;;;20.15;;
56999;SDS011;42891;50.006;21.964;2024-03-06T01:13:04;35.90;;;18.93;;
56999;SDS011;42891;50.006;21.964;2024-03-06T01:17:04;30.48;;;18.17;;
56999;SDS011;42891;50.006;21.964;2024-03-06T01:21:05;37.13;;;20.17;;
56999;SDS011;42891;50.006;21.964;2024-03-06T01:25:05;34.08;;;19.30;;
56999;SDS011;42891;50.006;21.964;2024-03-06T01:29:07;32.53;;;19.77;;
56999;SDS011;42891;50.006;21.964;2024-03-06T01:33:07;35.97;;;20.88;;
56999;SDS011;42891;50.006;21.964;2024-03-06T01:37:07;33.60;;;19.30;;
56999;SDS011;42891;50.006;21.964;2024-03-06T01:41:08;36.20;;;19.73;;
56999;SDS011;42891;50.006;21.964;2024-03-06T01:45:08;35.47;;;21.80;;
56999;SDS011;42891;50.006;21.964;2024-03-06T01:49:09;37.58;;;20.05;;
56999;SDS011;42891;50.006;21.964;2024-03-06T01:53:13;42.20;;;21.40;;
56999;SDS011;42891;50.006;21.964;2024-03-06T01:57:16;38.33;;;20.73;;
56999;SDS011;42891;50.006;21.964;2024-03-06T02:01:18;38.30;;;21.10;;
56999;SDS011;42891;50.006;21.964;2024-03-06T02:05:19;38.33;;;20.38;;
56999;SDS011;42891;50.006;21.964;2024-03-06T02:09:20;35.38;;;19.60;;
56999;SDS011;42891;50.006;21.964;2024-03-06T02:13:21;37.88;;;19.83;;
56999;SDS011;42891;50.006;21.964;2024-03-06T02:17:22;38.65;;;19.70;;
56999;SDS011;42891;50.006;21.964;2024-03-06T02:21:25;36.83;;;19.83;;
56999;SDS011;42891;50.006;21.964;2024-03-06T02:25:26;33.67;;;18.48;;
56999;SDS011;42891;50.006;21.964;2024-03-06T02:29:26;33.58;;;18.23;;
56999;SDS011;42891;50.006;21.964;2024-03-06T02:33:26;32.22;;;17.63;;
56999;SDS011;42891;50.006;21.964;2024-03-06T02:37:27;33.57;;;18.50;;
56999;SDS011;42891;50.006;21.964;2024-03-06T02:41:28;31.45;;;17.55;;
56999;SDS011;42891;50.006;21.964;2024-03-06T02:45:28;34.93;;;17.83;;
56999;SDS011;42891;50.006;21.964;2024-03-06T02:49:28;31.08;;;17.10;;
56999;SDS011;42891;50.006;21.964;2024-03-06T02:53:28;25.33;;;14.63;;
56999;SDS011;42891;50.006;21.964;2024-03-06T02:57:29;27.23;;;15.70;;
56999;SDS011;42891;50.006;21.964;2024-03-06T03:01:29;28.20;;;16.20;;
56999;SDS011;42891;50.006;21.964;2024-03-06T03:05:30;27.50;;;16.67;;
56999;SDS011;42891;50.006;21.964;2024-03-06T03:09:30;24.83;;;14.77;;
56999;SDS011;42891;50.006;21.964;2024-03-06T03:13:30;26.27;;;14.90;;
56999;SDS011;42891;50.006;21.964;2024-03-06T03:17:31;25.43;;;14.20;;
56999;SDS011;42891;50.006;21.964;2024-03-06T03:21:31;29.35;;;14.70;;
56999;SDS011;42891;50.006;21.964;2024-03-06T03:25:32;23.90;;;14.10;;
56999;SDS011;42891;50.006;21.964;2024-03-06T03:29:33;27.45;;;15.65;;
56999;SDS011;42891;50.006;21.964;2024-03-06T03:33:34;25.08;;;15.00;;
56999;SDS011;42891;50.006;21.964;2024-03-06T03:37:38;26.92;;;14.40;;
56999;SDS011;42891;50.006;21.964;2024-03-06T03:41:42;24.50;;;14.13;;
56999;SDS011;42891;50.006;21.964;2024-03-06T03:45:43;25.50;;;14.95;;
56999;SDS011;42891;50.006;21.964;2024-03-06T03:49:43;25.20;;;13.88;;
56999;SDS011;42891;50.006;21.964;2024-03-06T03:53:43;28.17;;;14.00;;
56999;SDS011;42891;50.006;21.964;2024-03-06T03:57:44;25.77;;;14.15;;
56999;SDS011;42891;50.006;21.964;2024-03-06T04:01:45;26.38;;;13.63;;
56999;SDS011;42891;50.006;21.964;2024-03-06T04:05:49;23.88;;;14.23;;
56999;SDS011;42891;50.006;21.964;2024-03-06T04:09:50;25.38;;;13.77;;
56999;SDS011;42891;50.006;21.964;2024-03-06T04:13:51;25.05;;;13.82;;
56999;SDS011;42891;50.006;21.964;2024-03-06T04:17:51;23.80;;;14.20;;
56999;SDS011;42891;50.006;21.964;2024-03-06T04:21:52;21.58;;;13.25;;
56999;SDS011;42891;50.006;21.964;2024-03-06T04:25:52;19.67;;;11.90;;
56999;SDS011;42891;50.006;21.964;2024-03-06T04:29:53;21.45;;;12.95;;
56999;SDS011;42891;50.006;21.964;2024-03-06T04:33:53;17.80;;;10.77;;
56999;SDS011;42891;50.006;21.964;2024-03-06T04:37:53;17.90;;;11.63;;
56999;SDS011;42891;50.006;21.964;2024-03-06T04:41:54;18.55;;;11.50;;
56999;SDS011;42891;50.006;21.964;2024-03-06T04:45:54;20.83;;;12.37;;
56999;SDS011;42891;50.006;21.964;2024-03-06T04:49:54;22.17;;;13.27;;
56999;SDS011;42891;50.006;21.964;2024-03-06T04:53:55;27.17;;;13.90;;
56999;SDS011;42891;50.006;21.964;2024-03-06T04:57:55;22.80;;;13.93;;
56999;SDS011;42891;50.006;21.964;2024-03-06T05:01:55;29.07;;;16.03;;
56999;SDS011;42891;50.006;21.964;2024-03-06T05:05:56;29.38;;;15.95;;
56999;SDS011;42891;50.006;21.964;2024-03-06T05:09:56;31.70;;;16.77;;
56999;SDS011;42891;50.006;21.964;2024-03-06T05:13:59;32.03;;;17.02;;
56999;SDS011;42891;50.006;21.964;2024-03-06T05:17:59;33.25;;;18.02;;
56999;SDS011;42891;50.006;21.964;2024-03-06T05:22:00;30.17;;;17.15;;
56999;SDS011;42891;50.006;21.964;2024-03-06T05:26:00;33.78;;;17.90;;
56999;SDS011;42891;50.006;21.964;2024-03-06T05:30:01;30.83;;;17.08;;
56999;SDS011;42891;50.006;21.964;2024-03-06T05:34:04;30.80;;;16.55;;
56999;SDS011;42891;50.006;21.964;2024-03-06T05:38:05;28.50;;;16.60;;
56999;SDS011;42891;50.006;21.964;2024-03-06T05:42:07;29.33;;;16.88;;
56999;SDS011;42891;50.006;21.964;2024-03-06T05:46:07;36.57;;;19.97;;
56999;SDS011;42891;50.006;21.964;2024-03-06T05:50:07;38.70;;;21.67;;
56999;SDS011;42891;50.006;21.964;2024-03-06T05:54:10;41.38;;;22.95;;
56999;SDS011;42891;50.006;21.964;2024-03-06T05:58:11;41.92;;;22.75;;
56999;SDS011;42891;50.006;21.964;2024-03-06T06:02:11;48.58;;;24.05;;
56999;SDS011;42891;50.006;21.964;2024-03-06T06:06:11;46.10;;;24.03;;
56999;SDS011;42891;50.006;21.964;2024-03-06T06:10:12;51.97;;;25.93;;
56999;SDS011;42891;50.006;21.964;2024-03-06T06:14:12;48.92;;;25.30;;
56999;SDS011;42891;50.006;21.964;2024-03-06T06:18:13;49.38;;;25.13;;
56999;SDS011;42891;50.006;21.964;2024-03-06T06:22:13;50.83;;;25.40;;
56999;SDS011;42891;50.006;21.964;2024-03-06T06:26:13;50.90;;;25.20;;
56999;SDS011;42891;50.006;21.964;2024-03-06T06:30:14;44.72;;;24.13;;
56999;SDS011;42891;50.006;21.964;2024-03-06T06:34:16;49.20;;;23.67;;
56999;SDS011;42891;50.006;21.964;2024-03-06T06:38:16;47.03;;;22.98;;
56999;SDS011;42891;50.006;21.964;2024-03-06T06:42:17;43.42;;;22.50;;
56999;SDS011;42891;50.006;21.964;2024-03-06T06:46:17;47.90;;;23.40;;
56999;SDS011;42891;50.006;21.964;2024-03-06T06:50:18;42.22;;;21.65;;
56999;SDS011;42891;50.006;21.964;2024-03-06T06:54:21;39.90;;;21.40;;
56999;SDS011;42891;50.006;21.964;2024-03-06T06:58:22;42.90;;;20.70;;
56999;SDS011;42891;50.006;21.964;2024-03-06T07:02:22;49.23;;;24.67;;
56999;SDS011;42891;50.006;21.964;2024-03-06T07:06:22;38.30;;;20.05;;
56999;SDS011;42891;50.006;21.964;2024-03-06T07:10:22;35.13;;;18.95;;
56999;SDS011;42891;50.006;21.964;2024-03-06T07:14:23;37.20;;;18.13;;
56999;SDS011;42891;50.006;21.964;2024-03-06T07:18:23;36.25;;;18.02;;
56999;SDS011;42891;50.006;21.964;2024-03-06T07:22:24;35.50;;;17.77;;
56999;SDS011;42891;50.006;21.964;2024-03-06T07:26:25;35.35;;;18.10;;
56999;SDS011;42891;50.006;21.964;2024-03-06T07:30:26;37.80;;;19.73;;
56999;SDS011;42891;50.006;21.964;2024-03-06T07:34:26;38.42;;;21.13;;
56999;SDS011;42891;50.006;21.964;2024-03-06T07:38:27;38.53;;;19.48;;
56999;SDS011;42891;50.006;21.964;2024-03-06T07:42:28;33.80;;;17.98;;
56999;SDS011;42891;50.006;21.964;2024-03-06T07:46:29;35.80;;;18.08;;
56999;SDS011;42891;50.006;21.964;2024-03-06T07:50:29;37.55;;;19.92;;
56999;SDS011;42891;50.006;21.964;2024-03-06T07:54:30;33.87;;;18.30;;
56999;SDS011;42891;50.006;21.964;2024-03-06T07:58:30;36.00;;;19.13;;
56999;SDS011;42891;50.006;21.964;2024-03-06T08:02:31;35.58;;;18.63;;
56999;SDS011;42891;50.006;21.964;2024-03-06T08:06:31;42.10;;;19.57;;
56999;SDS011;42891;50.006;21.964;2024-03-06T08:10:32;40.22;;;21.30;;
56999;SDS011;42891;50.006;21.964;2024-03-06T08:14:33;40.45;;;20.58;;
56999;SDS011;42891;50.006;21.964;2024-03-06T08:18:34;41.20;;;20.30;;
56999;SDS011;42891;50.006;21.964;2024-03-06T08:22:36;38.38;;;20.23;;
56999;SDS011;42891;50.006;21.964;2024-03-06T08:26:38;43.70;;;21.00;;
56999;SDS011;42891;50.006;21.964;2024-03-06T08:30:39;41.57;;;19.53;;
56999;SDS011;42891;50.006;21.964;2024-03-06T08:34:39;35.05;;;18.20;;
56999;SDS011;42891;50.006;21.964;2024-03-06T08:38:39;39.70;;;19.77;;
56999;SDS011;42891;50.006;21.964;2024-03-06T08:42:41;34.05;;;18.13;;
56999;SDS011;42891;50.006;21.964;2024-03-06T08:46:42;38.17;;;18.65;;
56999;SDS011;42891;50.006;21.964;2024-03-06T08:50:42;39.10;;;19.93;;
56999;SDS011;42891;50.006;21.964;2024-03-06T08:54:42;38.90;;;19.77;;
56999;SDS011;42891;50.006;21.964;2024-03-06T08:58:43;43.90;;;20.57;;
56999;SDS011;42891;50.006;21.964;2024-03-06T09:02:43;43.05;;;21.45;;
56999;SDS011;42891;50.006;21.964;2024-03-06T09:06:43;40.92;;;20.27;;
56999;SDS011;42891;50.006;21.964;2024-03-06T09:10:43;41.45;;;19.75;;
56999;SDS011;42891;50.006;21.964;2024-03-06T09:14:44;36.10;;;18.95;;
56999;SDS011;42891;50.006;21.964;2024-03-06T09:18:44;36.25;;;19.80;;
56999;SDS011;42891;50.006;21.964;2024-03-06T09:22:45;35.90;;;18.07;;
56999;SDS011;42891;50.006;21.964;2024-03-06T09:26:45;37.70;;;19.00;;
56999;SDS011;42891;50.006;21.964;2024-03-06T09:30:45;39.80;;;19.95;;
56999;SDS011;42891;50.006;21.964;2024-03-06T09:34:46;44.40;;;19.83;;
56999;SDS011;42891;50.006;21.964;2024-03-06T09:38:46;35.28;;;18.73;;
56999;SDS011;42891;50.006;21.964;2024-03-06T09:42:47;37.13;;;19.38;;
56999;SDS011;42891;50.006;21.964;2024-03-06T09:46:49;33.38;;;18.45;;
56999;SDS011;42891;50.006;21.964;2024-03-06T09:50:49;35.58;;;17.77;;
56999;SDS011;42891;50.006;21.964;2024-03-06T09:54:53;36.42;;;18.25;;
56999;SDS011;42891;50.006;21.964;2024-03-06T09:58:55;40.60;;;19.50;;
56999;SDS011;42891;50.006;21.964;2024-03-06T10:02:58;38.83;;;19.00;;
56999;SDS011;42891;50.006;21.964;2024-03-06T10:07:00;31.50;;;17.90;;
56999;SDS011;42891;50.006;21.964;2024-03-06T10:11:02;40.53;;;18.88;;
56999;SDS011;42891;50.006;21.964;2024-03-06T10:15:03;31.95;;;17.35;;
56999;SDS011;42891;50.006;21.964;2024-03-06T10:19:16;33.17;;;18.83;;
56999;SDS011;42891;50.006;21.964;2024-03-06T10:23:18;35.50;;;19.60;;
56999;SDS011;42891;50.006;21.964;2024-03-06T10:27:18;40.63;;;19.55;;
56999;SDS011;42891;50.006;21.964;2024-03-06T10:31:26;41.55;;;20.00;;
56999;SDS011;42891;50.006;21.964;2024-03-06T10:35:28;40.40;;;19.83;;
56999;SDS011;42891;50.006;21.964;2024-03-06T10:39:28;39.50;;;20.50;;
56999;SDS011;42891;50.006;21.964;2024-03-06T10:43:30;40.78;;;19.65;;
56999;SDS011;42891;50.006;21.964;2024-03-06T10:47:32;37.92;;;19.98;;
56999;SDS011;42891;50.006;21.964;2024-03-06T10:51:33;36.25;;;18.30;;
56999;SDS011;42891;50.006;21.964;2024-03-06T10:55:35;39.42;;;18.67;;
56999;SDS011;42891;50.006;21.964;2024-03-06T10:59:36;40.25;;;20.23;;
56999;SDS011;42891;50.006;21.964;2024-03-06T11:03:36;40.80;;;19.85;;
56999;SDS011;42891;50.006;21.964;2024-03-06T11:07:37;40.50;;;19.58;;
56999;SDS011;42891;50.006;21.964;2024-03-06T11:11:47;58.75;;;27.85;;
56999;SDS011;42891;50.006;21.964;2024-03-06T11:15:49;38.60;;;19.60;;
56999;SDS011;42891;50.006;21.964;2024-03-06T11:24:19;40.70;;;20.73;;
56999;SDS011;42891;50.006;21.964;2024-03-06T11:28:30;38.75;;;20.45;;
56999;SDS011;42891;50.006;21.964;2024-03-06T11:32:32;37.85;;;21.83;;
56999;SDS011;42891;50.006;21.964;2024-03-06T11:36:33;46.55;;;22.92;;
56999;SDS011;42891;50.006;21.964;2024-03-06T11:40:42;46.55;;;22.92;;
56999;SDS011;42891;50.006;21.964;2024-03-06T11:44:53;47.63;;;22.58;;
56999;SDS011;42891;50.006;21.964;2024-03-06T11:48:55;43.63;;;22.63;;
56999;SDS011;42891;50.006;21.964;2024-03-06T11:52:55;39.38;;;21.90;;
56999;SDS011;42891;50.006;21.964;2024-03-06T11:56:57;43.67;;;23.10;;
56999;SDS011;42891;50.006;21.964;2024-03-06T12:00:59;34.05;;;19.85;;
56999;SDS011;42891;50.006;21.964;2024-03-06T12:05:04;35.42;;;19.55;;
56999;SDS011;42891;50.006;21.964;2024-03-06T12:09:05;35.70;;;20.05;;
56999;SDS011;42891;50.006;21.964;2024-03-06T12:13:05;42.65;;;22.55;;
56999;SDS011;42891;50.006;21.964;2024-03-06T12:17:05;43.67;;;24.47;;
56999;SDS011;42891;50.006;21.964;2024-03-06T12:21:08;41.63;;;22.25;;
56999;SDS011;42891;50.006;21.964;2024-03-06T12:25:17;40.80;;;22.73;;
56999;SDS011;42891;50.006;21.964;2024-03-06T12:29:18;43.80;;;23.00;;
56999;SDS011;42891;50.006;21.964;2024-03-06T12:33:20;38.47;;;23.65;;
56999;SDS011;42891;50.006;21.964;2024-03-06T12:37:20;43.33;;;23.88;;
56999;SDS011;42891;50.006;21.964;2024-03-06T12:41:30;40.05;;;24.95;;
56999;SDS011;42891;50.006;21.964;2024-03-06T12:45:30;40.88;;;24.45;;
56999;SDS011;42891;50.006;21.964;2024-03-06T12:49:31;48.20;;;25.02;;
56999;SDS011;42891;50.006;21.964;2024-03-06T12:53:32;40.90;;;23.85;;
56999;SDS011;42891;50.006;21.964;2024-03-06T12:57:35;43.03;;;23.23;;
56999;SDS011;42891;50.006;21.964;2024-03-06T13:01:36;36.63;;;22.67;;
56999;SDS011;42891;50.006;21.964;2024-03-06T13:05:36;33.63;;;20.93;;
56999;SDS011;42891;50.006;21.964;2024-03-06T13:09:37;40.13;;;24.50;;
56999;SDS011;42891;50.006;21.964;2024-03-06T13:13:37;43.67;;;25.67;;
56999;SDS011;42891;50.006;21.964;2024-03-06T13:17:37;46.00;;;26.53;;
56999;SDS011;42891;50.006;21.964;2024-03-06T13:21:39;43.47;;;25.45;;
56999;SDS011;42891;50.006;21.964;2024-03-06T13:25:39;46.80;;;29.37;;
56999;SDS011;42891;50.006;21.964;2024-03-06T13:29:40;53.42;;;31.25;;
56999;SDS011;42891;50.006;21.964;2024-03-06T13:33:41;47.27;;;28.33;;
56999;SDS011;42891;50.006;21.964;2024-03-06T13:37:42;53.45;;;34.90;;
56999;SDS011;42891;50.006;21.964;2024-03-06T13:41:42;47.10;;;29.05;;
56999;SDS011;42891;50.006;21.964;2024-03-06T13:45:49;51.75;;;29.90;;
56999;SDS011;42891;50.006;21.964;2024-03-06T13:49:50;49.70;;;30.42;;
56999;SDS011;42891;50.006;21.964;2024-03-06T13:53:50;49.97;;;29.53;;
56999;SDS011;42891;50.006;21.964;2024-03-06T13:57:51;49.80;;;30.50;;
56999;SDS011;42891;50.006;21.964;2024-03-06T14:01:51;52.92;;;29.95;;
56999;SDS011;42891;50.006;21.964;2024-03-06T14:05:51;51.50;;;30.40;;
56999;SDS011;42891;50.006;21.964;2024-03-06T14:09:52;54.58;;;32.45;;
56999;SDS011;42891;50.006;21.964;2024-03-06T14:13:52;57.80;;;34.88;;
56999;SDS011;42891;50.006;21.964;2024-03-06T14:17:52;58.73;;;34.37;;
56999;SDS011;42891;50.006;21.964;2024-03-06T14:21:54;72.80;;;38.17;;
56999;SDS011;42891;50.006;21.964;2024-03-06T14:25:54;64.43;;;35.70;;
56999;SDS011;42891;50.006;21.964;2024-03-06T14:29:54;75.03;;;40.30;;
56999;SDS011;42891;50.006;21.964;2024-03-06T14:33:55;78.10;;;42.77;;
56999;SDS011;42891;50.006;21.964;2024-03-06T14:37:56;51.17;;;31.25;;
56999;SDS011;42891;50.006;21.964;2024-03-06T14:41:56;66.97;;;35.73;;
56999;SDS011;42891;50.006;21.964;2024-03-06T14:45:56;59.60;;;34.95;;
56999;SDS011;42891;50.006;21.964;2024-03-06T14:49:56;54.60;;;31.03;;
56999;SDS011;42891;50.006;21.964;2024-03-06T14:53:57;60.55;;;35.15;;
56999;SDS011;42891;50.006;21.964;2024-03-06T14:57:57;57.10;;;31.63;;
56999;SDS011;42891;50.006;21.964;2024-03-06T15:01:57;36.97;;;23.83;;
56999;SDS011;42891;50.006;21.964;2024-03-06T15:05:57;40.17;;;25.37;;
56999;SDS011;42891;50.006;21.964;2024-03-06T15:09:58;36.45;;;23.45;;
56999;SDS011;42891;50.006;21.964;2024-03-06T15:13:59;28.55;;;19.67;;
56999;SDS011;42891;50.006;21.964;2024-03-06T15:17:59;34.67;;;22.35;;
56999;SDS011;42891;50.006;21.964;2024-03-06T15:21:59;27.17;;;18.77;;
56999;SDS011;42891;50.006;21.964;2024-03-06T15:26:03;31.63;;;19.45;;
56999;SDS011;42891;50.006;21.964;2024-03-06T15:30:04;32.53;;;20.15;;
56999;SDS011;42891;50.006;21.964;2024-03-06T15:34:06;22.75;;;16.75;;
56999;SDS011;42891;50.006;21.964;2024-03-06T15:38:06;21.20;;;14.35;;
56999;SDS011;42891;50.006;21.964;2024-03-06T15:42:07;16.37;;;11.70;;
56999;SDS011;42891;50.006;21.964;2024-03-06T15:46:08;14.45;;;10.77;;
56999;SDS011;42891;50.006;21.964;2024-03-06T15:50:08;16.85;;;11.25;;
56999;SDS011;42891;50.006;21.964;2024-03-06T15:54:10;14.50;;;10.98;;
56999;SDS011;42891;50.006;21.964;2024-03-06T15:58:11;15.50;;;10.95;;
56999;SDS011;42891;50.006;21.964;2024-03-06T16:02:11;16.30;;;10.47;;
56999;SDS011;42891;50.006;21.964;2024-03-06T16:06:12;12.13;;;8.97;;
56999;SDS011;42891;50.006;21.964;2024-03-06T16:10:12;11.95;;;9.15;;
56999;SDS011;42891;50.006;21.964;2024-03-06T16:14:12;12.15;;;9.85;;
56999;SDS011;42891;50.006;21.964;2024-03-06T16:18:13;16.27;;;11.63;;
56999;SDS011;42891;50.006;21.964;2024-03-06T16:22:13;14.80;;;10.57;;
56999;SDS011;42891;50.006;21.964;2024-03-06T16:26:13;16.13;;;12.02;;
56999;SDS011;42891;50.006;21.964;2024-03-06T16:30:14;11.98;;;9.65;;
56999;SDS011;42891;50.006;21.964;2024-03-06T16:34:15;12.70;;;10.02;;
56999;SDS011;42891;50.006;21.964;2024-03-06T16:38:16;16.67;;;12.88;;
56999;SDS011;42891;50.006;21.964;2024-03-06T16:42:18;11.77;;;9.32;;
56999;SDS011;42891;50.006;21.964;2024-03-06T16:46:20;13.27;;;10.07;;
56999;SDS011;42891;50.006;21.964;2024-03-06T16:50:20;13.03;;;9.73;;
56999;SDS011;42891;50.006;21.964;2024-03-06T16:54:21;13.38;;;10.45;;
56999;SDS011;42891;50.006;21.964;2024-03-06T16:58:21;10.43;;;9.17;;
56999;SDS011;42891;50.006;21.964;2024-03-06T17:02:21;13.38;;;10.07;;
56999;SDS011;42891;50.006;21.964;2024-03-06T17:06:22;11.60;;;9.70;;
56999;SDS011;42891;50.006;21.964;2024-03-06T17:10:22;13.90;;;9.90;;
56999;SDS011;42891;50.006;21.964;2024-03-06T17:14:23;10.50;;;8.00;;
56999;SDS011;42891;50.006;21.964;2024-03-06T17:18:23;9.73;;;7.97;;
56999;SDS011;42891;50.006;21.964;2024-03-06T17:22:24;8.25;;;7.22;;
56999;SDS011;42891;50.006;21.964;2024-03-06T17:26:24;10.65;;;7.78;;
56999;SDS011;42891;50.006;21.964;2024-03-06T17:30:24;11.43;;;8.37;;
56999;SDS011;42891;50.006;21.964;2024-03-06T17:34:28;11.90;;;8.88;;
56999;SDS011;42891;50.006;21.964;2024-03-06T17:38:28;13.30;;;9.50;;
56999;SDS011;42891;50.006;21.964;2024-03-06T17:42:29;12.52;;;8.25;;
56999;SDS011;42891;50.006;21.964;2024-03-06T17:46:30;13.45;;;9.10;;
56999;SDS011;42891;50.006;21.964;2024-03-06T17:50:31;7.75;;;5.88;;
56999;SDS011;42891;50.006;21.964;2024-03-06T17:54:34;8.38;;;6.93;;
56999;SDS011;42891;50.006;21.964;2024-03-06T17:58:35;8.77;;;6.97;;
56999;SDS011;42891;50.006;21.964;2024-03-06T18:02:36;11.87;;;9.77;;
56999;SDS011;42891;50.006;21.964;2024-03-06T18:06:36;12.57;;;9.17;;
56999;SDS011;42891;50.006;21.964;2024-03-06T18:10:36;8.93;;;7.95;;
56999;SDS011;42891;50.006;21.964;2024-03-06T18:14:36;8.90;;;8.00;;
56999;SDS011;42891;50.006;21.964;2024-03-06T18:18:37;12.00;;;8.57;;
56999;SDS011;42891;50.006;21.964;2024-03-06T18:22:37;12.48;;;10.57;;
56999;SDS011;42891;50.006;21.964;2024-03-06T18:26:38;10.18;;;8.73;;
56999;SDS011;42891;50.006;21.964;2024-03-06T18:30:38;13.27;;;10.55;;
56999;SDS011;42891;50.006;21.964;2024-03-06T18:34:38;13.07;;;10.13;;
56999;SDS011;42891;50.006;21.964;2024-03-06T18:38:39;13.20;;;9.93;;
56999;SDS011;42891;50.006;21.964;2024-03-06T18:42:39;11.93;;;9.75;;
56999;SDS011;42891;50.006;21.964;2024-03-06T18:46:40;14.65;;;10.57;;
56999;SDS011;42891;50.006;21.964;2024-03-06T18:50:41;12.65;;;9.25;;
56999;SDS011;42891;50.006;21.964;2024-03-06T18:54:41;11.88;;;10.00;;
56999;SDS011;42891;50.006;21.964;2024-03-06T18:58:41;13.27;;;10.38;;
56999;SDS011;42891;50.006;21.964;2024-03-06T19:02:42;19.88;;;14.00;;
56999;SDS011;42891;50.006;21.964;2024-03-06T19:06:42;18.52;;;12.60;;
56999;SDS011;42891;50.006;21.964;2024-03-06T19:10:45;17.85;;;13.63;;
56999;SDS011;42891;50.006;21.964;2024-03-06T19:14:45;17.70;;;13.38;;
56999;SDS011;42891;50.006;21.964;2024-03-06T19:18:45;24.77;;;15.63;;
56999;SDS011;42891;50.006;21.964;2024-03-06T19:22:46;19.33;;;13.73;;
56999;SDS011;42891;50.006;21.964;2024-03-06T19:26:46;20.35;;;15.70;;
56999;SDS011;42891;50.006;21.964;2024-03-06T19:30:47;24.40;;;17.20;;
56999;SDS011;42891;50.006;21.964;2024-03-06T19:34:48;22.13;;;15.38;;
56999;SDS011;42891;50.006;21.964;2024-03-06T19:38:48;21.15;;;15.75;;
56999;SDS011;42891;50.006;21.964;2024-03-06T19:42:49;24.42;;;18.20;;
56999;SDS011;42891;50.006;21.964;2024-03-06T19:46:49;25.73;;;18.23;;
56999;SDS011;42891;50.006;21.964;2024-03-06T19:50:52;25.38;;;17.48;;
56999;SDS011;42891;50.006;21.964;2024-03-06T19:54:54;26.85;;;17.90;;
56999;SDS011;42891;50.006;21.964;2024-03-06T19:58:54;24.07;;;17.27;;
56999;SDS011;42891;50.006;21.964;2024-03-06T20:02:54;31.48;;;20.65;;
56999;SDS011;42891;50.006;21.964;2024-03-06T20:06:55;25.73;;;17.27;;
56999;SDS011;42891;50.006;21.964;2024-03-06T20:10:55;23.85;;;16.70;;
56999;SDS011;42891;50.006;21.964;2024-03-06T20:14:55;23.70;;;14.65;;
56999;SDS011;42891;50.006;21.964;2024-03-06T20:18:56;23.27;;;15.57;;
56999;SDS011;42891;50.006;21.964;2024-03-06T20:22:56;23.97;;;16.23;;
56999;SDS011;42891;50.006;21.964;2024-03-06T20:26:59;25.80;;;16.63;;
56999;SDS011;42891;50.006;21.964;2024-03-06T20:31:03;23.48;;;15.98;;
56999;SDS011;42891;50.006;21.964;2024-03-06T20:35:04;30.13;;;18.05;;
56999;SDS011;42891;50.006;21.964;2024-03-06T20:39:04;25.73;;;17.33;;
56999;SDS011;42891;50.006;21.964;2024-03-06T20:43:05;25.73;;;17.97;;
56999;SDS011;42891;50.006;21.964;2024-03-06T20:47:07;31.00;;;19.40;;
56999;SDS011;42891;50.006;21.964;2024-03-06T20:51:07;27.53;;;18.07;;
56999;SDS011;42891;50.006;21.964;2024-03-06T20:55:11;26.35;;;18.10;;
56999;SDS011;42891;50.006;21.964;2024-03-06T20:59:13;28.17;;;18.17;;
56999;SDS011;42891;50.006;21.964;2024-03-06T21:03:14;27.25;;;17.17;;
56999;SDS011;42891;50.006;21.964;2024-03-06T21:07:14;27.80;;;18.98;;
56999;SDS011;42891;50.006;21.964;2024-03-06T21:11:15;27.80;;;17.40;;
56999;SDS011;42891;50.006;21.964;2024-03-06T21:15:16;27.83;;;19.00;;
56999;SDS011;42891;50.006;21.964;2024-03-06T21:19:16;28.10;;;18.23;;
56999;SDS011;42891;50.006;21.964;2024-03-06T21:23:17;28.25;;;18.77;;
56999;SDS011;42891;50.006;21.964;2024-03-06T21:27:20;29.70;;;19.00;;
56999;SDS011;42891;50.006;21.964;2024-03-06T21:31:20;30.52;;;19.65;;
56999;SDS011;42891;50.006;21.964;2024-03-06T21:35:22;31.23;;;18.17;;
56999;SDS011;42891;50.006;21.964;2024-03-06T21:39:24;34.58;;;20.48;;
56999;SDS011;42891;50.006;21.964;2024-03-06T21:43:24;24.73;;;16.70;;
56999;SDS011;42891;50.006;21.964;2024-03-06T21:47:25;25.10;;;17.20;;
56999;SDS011;42891;50.006;21.964;2024-03-06T21:51:25;27.45;;;17.33;;
56999;SDS011;42891;50.006;21.964;2024-03-06T21:55:25;29.85;;;19.02;;
56999;SDS011;42891;50.006;21.964;2024-03-06T21:59:26;29.52;;;19.30;;
56999;SDS011;42891;50.006;21.964;2024-03-06T22:03:26;32.35;;;19.63;;
56999;SDS011;42891;50.006;21.964;2024-03-06T22:07:27;31.80;;;19.43;;
56999;SDS011;42891;50.006;21.964;2024-03-06T22:11:27;33.20;;;20.03;;
56999;SDS011;42891;50.006;21.964;2024-03-06T22:15:27;34.27;;;21.33;;
56999;SDS011;42891;50.006;21.964;2024-03-06T22:19:27;34.08;;;19.88;;
56999;SDS011;42891;50.006;21.964;2024-03-06T22:23:28;35.65;;;20.73;;
56999;SDS011;42891;50.006;21.964;2024-03-06T22:27:32;36.63;;;22.77;;
56999;SDS011;42891;50.006;21.964;2024-03-06T22:31:32;34.10;;;19.00;;
56999;SDS011;42891;50.006;21.964;2024-03-06T22:35:33;39.83;;;21.37;;
56999;SDS011;42891;50.006;21.964;2024-03-06T22:39:33;38.90;;;21.45;;
56999;SDS011;42891;50.006;21.964;2024-03-06T22:43:33;36.80;;;22.27;;
56999;SDS011;42891;50.006;21.964;2024-03-06T22:47:34;38.22;;;21.67;;
56999;SDS011;42891;50.006;21.964;2024-03-06T22:51:36;30.65;;;18.25;;
56999;SDS011;42891;50.006;21.964;2024-03-06T22:55:36;35.25;;;20.02;;
56999;SDS011;42891;50.006;21.964;2024-03-06T22:59:38;39.13;;;21.52;;
56999;SDS011;42891;50.006;21.964;2024-03-06T23:03:40;35.70;;;21.33;;
56999;SDS011;42891;50.006;21.964;2024-03-06T23:07:41;43.58;;;23.85;;
56999;SDS011;42891;50.006;21.964;2024-03-06T23:11:41;44.78;;;24.00;;
56999;SDS011;42891;50.006;21.964;2024-03-06T23:15:41;43.40;;;24.10;;